sensor_id;sensor_type;location;lat;lon;timestamp;P1;durP1;ratioP1;P2;durP2;ratioP2
23472;SDS011;11909;52.516;13.564;2023-07-13T00:00:55;5.80;;;1.85;;
23472;SDS011;11909;52.516;13.564;2023-07-13T00:03:23;7.50;;;2.15;;
23472;SDS011;11909;52.516;13.564;2023-07-13T00:05:59;3.63;;;2.10;;
23472;SDS011;11909;52.516;13.564;2023-07-13T00:08:29;4.75;;;2.15;;
23472;SDS011;11909;52.516;13.564;2023-07-13T00:10:59;5.45;;;2.15;;
23472;SDS011;11909;52.516;13.564;2023-07-13T00:13:27;5.22;;;2.47;;
23472;SDS011;11909;52.516;13.564;2023-07-13T00:15:56;3.95;;;2.05;;
23472;SDS011;11909;52.516;13.564;2023-07-13T00:18:24;4.30;;;2.58;;
23472;SDS011;11909;52.516;13.564;2023-07-13T00:20:52;4.00;;;2.40;;
23472;SDS011;11909;52.516;13.564;2023-07-13T00:23:21;3.63;;;2.17;;
23472;SDS011;11909;52.516;13.564;2023-07-13T00:25:49;4.82;;;1.98;;
23472;SDS011;11909;52.516;13.564;2023-07-13T00:28:18;6.28;;;2.47;;
23472;SDS011;11909;52.516;13.564;2023-07-13T00:30:46;4.93;;;2.33;;
23472;SDS011;11909;52.516;13.564;2023-07-13T00:33:14;3.08;;;2.45;;
23472;SDS011;11909;52.516;13.564;2023-07-13T00:35:44;2.97;;;1.92;;
23472;SDS011;11909;52.516;13.564;2023-07-13T00:38:11;4.40;;;2.30;;
23472;SDS011;11909;52.516;13.564;2023-07-13T00:40:41;4.85;;;2.20;;
23472;SDS011;11909;52.516;13.564;2023-07-13T00:43:11;2.93;;;2.10;;
23472;SDS011;11909;52.516;13.564;2023-07-13T00:48:45;5.22;;;2.35;;
23472;SDS011;11909;52.516;13.564;2023-07-13T00:51:16;4.22;;;2.53;;
23472;SDS011;11909;52.516;13.564;2023-07-13T00:53:49;7.68;;;2.83;;
23472;SDS011;11909;52.516;13.564;2023-07-13T00:56:19;4.53;;;2.20;;
23472;SDS011;11909;52.516;13.564;2023-07-13T00:58:47;6.05;;;2.70;;
23472;SDS011;11909;52.516;13.564;2023-07-13T01:01:16;7.10;;;2.40;;
23472;SDS011;11909;52.516;13.564;2023-07-13T01:03:44;2.42;;;2.05;;
23472;SDS011;11909;52.516;13.564;2023-07-13T01:06:13;4.82;;;2.40;;
23472;SDS011;11909;52.516;13.564;2023-07-13T01:08:42;6.32;;;2.78;;
23472;SDS011;11909;52.516;13.564;2023-07-13T01:11:09;4.88;;;2.22;;
23472;SDS011;11909;52.516;13.564;2023-07-13T01:13:39;5.45;;;2.20;;
23472;SDS011;11909;52.516;13.564;2023-07-13T01:16:11;8.13;;;2.50;;
23472;SDS011;11909;52.516;13.564;2023-07-13T01:18:45;7.15;;;2.45;;
23472;SDS011;11909;52.516;13.564;2023-07-13T01:21:14;3.47;;;2.50;;
23472;SDS011;11909;52.516;13.564;2023-07-13T01:23:42;4.30;;;2.35;;
23472;SDS011;11909;52.516;13.564;2023-07-13T01:26:11;5.07;;;2.30;;
23472;SDS011;11909;52.516;13.564;2023-07-13T01:28:39;6.18;;;2.70;;
23472;SDS011;11909;52.516;13.564;2023-07-13T01:31:07;5.65;;;2.83;;
23472;SDS011;11909;52.516;13.564;2023-07-13T01:33:36;5.95;;;2.50;;
23472;SDS011;11909;52.516;13.564;2023-07-13T01:36:05;3.83;;;2.58;;
23472;SDS011;11909;52.516;13.564;2023-07-13T01:38:35;6.65;;;2.75;;
23472;SDS011;11909;52.516;13.564;2023-07-13T01:41:03;4.10;;;2.80;;
23472;SDS011;11909;52.516;13.564;2023-07-13T01:43:31;3.90;;;2.50;;
23472;SDS011;11909;52.516;13.564;2023-07-13T01:45:59;5.93;;;2.83;;
23472;SDS011;11909;52.516;13.564;2023-07-13T01:48:47;5.35;;;2.38;;
23472;SDS011;11909;52.516;13.564;2023-07-13T01:51:15;5.82;;;3.20;;
23472;SDS011;11909;52.516;13.564;2023-07-13T01:53:46;5.63;;;2.73;;
23472;SDS011;11909;52.516;13.564;2023-07-13T01:56:14;4.43;;;2.95;;
23472;SDS011;11909;52.516;13.564;2023-07-13T01:58:42;7.40;;;2.70;;
23472;SDS011;11909;52.516;13.564;2023-07-13T02:01:10;6.65;;;3.17;;
23472;SDS011;11909;52.516;13.564;2023-07-13T02:03:37;5.88;;;2.80;;
23472;SDS011;11909;52.516;13.564;2023-07-13T02:06:05;4.43;;;2.45;;
23472;SDS011;11909;52.516;13.564;2023-07-13T02:08:33;3.90;;;2.58;;
23472;SDS011;11909;52.516;13.564;2023-07-13T02:11:03;7.28;;;2.92;;
23472;SDS011;11909;52.516;13.564;2023-07-13T02:13:31;6.63;;;2.63;;
23472;SDS011;11909;52.516;13.564;2023-07-13T02:15:59;5.72;;;2.90;;
23472;SDS011;11909;52.516;13.564;2023-07-13T02:18:28;6.07;;;2.85;;
23472;SDS011;11909;52.516;13.564;2023-07-13T02:20:55;9.07;;;3.10;;
23472;SDS011;11909;52.516;13.564;2023-07-13T02:23:23;6.53;;;2.60;;
23472;SDS011;11909;52.516;13.564;2023-07-13T02:25:54;5.38;;;2.70;;
23472;SDS011;11909;52.516;13.564;2023-07-13T02:28:24;4.20;;;2.50;;
23472;SDS011;11909;52.516;13.564;2023-07-13T02:30:52;8.03;;;2.63;;
23472;SDS011;11909;52.516;13.564;2023-07-13T02:33:20;7.18;;;2.90;;
23472;SDS011;11909;52.516;13.564;2023-07-13T02:35:48;3.85;;;2.50;;
23472;SDS011;11909;52.516;13.564;2023-07-13T02:38:16;6.93;;;2.65;;
23472;SDS011;11909;52.516;13.564;2023-07-13T02:40:43;5.10;;;2.67;;
23472;SDS011;11909;52.516;13.564;2023-07-13T02:43:14;5.00;;;2.90;;
23472;SDS011;11909;52.516;13.564;2023-07-13T02:45:44;9.23;;;3.05;;
23472;SDS011;11909;52.516;13.564;2023-07-13T02:48:13;11.18;;;3.13;;
23472;SDS011;11909;52.516;13.564;2023-07-13T02:50:41;6.70;;;2.92;;
23472;SDS011;11909;52.516;13.564;2023-07-13T02:53:09;5.85;;;2.97;;
23472;SDS011;11909;52.516;13.564;2023-07-13T02:55:37;7.22;;;2.97;;
23472;SDS011;11909;52.516;13.564;2023-07-13T02:58:07;4.45;;;2.88;;
23472;SDS011;11909;52.516;13.564;2023-07-13T03:00:37;5.72;;;3.00;;
23472;SDS011;11909;52.516;13.564;2023-07-13T03:03:08;7.45;;;2.90;;
23472;SDS011;11909;52.516;13.564;2023-07-13T03:05:37;5.45;;;2.90;;
23472;SDS011;11909;52.516;13.564;2023-07-13T03:08:05;6.97;;;3.25;;
23472;SDS011;11909;52.516;13.564;2023-07-13T03:10:33;7.38;;;3.22;;
23472;SDS011;11909;52.516;13.564;2023-07-13T03:13:01;7.72;;;3.13;;
23472;SDS011;11909;52.516;13.564;2023-07-13T03:15:29;5.35;;;2.83;;
23472;SDS011;11909;52.516;13.564;2023-07-13T03:17:57;10.35;;;3.63;;
23472;SDS011;11909;52.516;13.564;2023-07-13T03:20:27;6.15;;;2.97;;
23472;SDS011;11909;52.516;13.564;2023-07-13T03:22:55;9.30;;;3.30;;
23472;SDS011;11909;52.516;13.564;2023-07-13T03:25:23;6.65;;;3.15;;
23472;SDS011;11909;52.516;13.564;2023-07-13T03:27:50;5.55;;;3.35;;
23472;SDS011;11909;52.516;13.564;2023-07-13T03:30:19;6.07;;;3.20;;
23472;SDS011;11909;52.516;13.564;2023-07-13T03:32:47;5.68;;;3.25;;
23472;SDS011;11909;52.516;13.564;2023-07-13T03:35:14;6.70;;;2.95;;
23472;SDS011;11909;52.516;13.564;2023-07-13T03:37:44;8.50;;;3.10;;
23472;SDS011;11909;52.516;13.564;2023-07-13T03:40:12;6.78;;;2.97;;
23472;SDS011;11909;52.516;13.564;2023-07-13T03:42:40;6.88;;;3.40;;
23472;SDS011;11909;52.516;13.564;2023-07-13T03:45:09;6.55;;;3.13;;
23472;SDS011;11909;52.516;13.564;2023-07-13T03:47:37;6.60;;;3.08;;
23472;SDS011;11909;52.516;13.564;2023-07-13T03:50:05;4.85;;;2.88;;
23472;SDS011;11909;52.516;13.564;2023-07-13T03:52:34;6.47;;;3.10;;
23472;SDS011;11909;52.516;13.564;2023-07-13T03:55:03;5.40;;;3.30;;
23472;SDS011;11909;52.516;13.564;2023-07-13T03:57:32;13.77;;;3.63;;
23472;SDS011;11909;52.516;13.564;2023-07-13T04:00:05;8.75;;;3.15;;
23472;SDS011;11909;52.516;13.564;2023-07-13T04:02:35;6.15;;;3.15;;
23472;SDS011;11909;52.516;13.564;2023-07-13T04:05:04;7.50;;;3.17;;
23472;SDS011;11909;52.516;13.564;2023-07-13T04:07:32;7.72;;;3.65;;
23472;SDS011;11909;52.516;13.564;2023-07-13T04:10:01;7.15;;;3.35;;
23472;SDS011;11909;52.516;13.564;2023-07-13T04:12:30;6.18;;;3.05;;
23472;SDS011;11909;52.516;13.564;2023-07-13T04:14:58;7.43;;;3.85;;
23472;SDS011;11909;52.516;13.564;2023-07-13T04:17:26;11.40;;;3.63;;
23472;SDS011;11909;52.516;13.564;2023-07-13T04:19:54;8.43;;;3.80;;
23472;SDS011;11909;52.516;13.564;2023-07-13T04:22:22;9.38;;;3.90;;
23472;SDS011;11909;52.516;13.564;2023-07-13T04:24:50;7.25;;;3.33;;
23472;SDS011;11909;52.516;13.564;2023-07-13T04:27:18;8.93;;;3.88;;
23472;SDS011;11909;52.516;13.564;2023-07-13T04:29:49;9.60;;;3.60;;
23472;SDS011;11909;52.516;13.564;2023-07-13T04:32:18;7.15;;;3.47;;
23472;SDS011;11909;52.516;13.564;2023-07-13T04:34:45;9.55;;;3.78;;
23472;SDS011;11909;52.516;13.564;2023-07-13T04:37:13;5.43;;;3.45;;
23472;SDS011;11909;52.516;13.564;2023-07-13T04:39:41;10.32;;;3.70;;
23472;SDS011;11909;52.516;13.564;2023-07-13T04:42:09;6.45;;;3.33;;
23472;SDS011;11909;52.516;13.564;2023-07-13T04:44:37;5.60;;;3.10;;
23472;SDS011;11909;52.516;13.564;2023-07-13T04:47:07;11.25;;;2.83;;
23472;SDS011;11909;52.516;13.564;2023-07-13T04:49:35;6.93;;;3.22;;
23472;SDS011;11909;52.516;13.564;2023-07-13T04:52:03;4.70;;;2.78;;
23472;SDS011;11909;52.516;13.564;2023-07-13T04:54:31;6.35;;;3.13;;
23472;SDS011;11909;52.516;13.564;2023-07-13T04:56:59;5.95;;;2.72;;
23472;SDS011;11909;52.516;13.564;2023-07-13T04:59:27;5.68;;;2.75;;
23472;SDS011;11909;52.516;13.564;2023-07-13T05:01:55;6.90;;;3.20;;
23472;SDS011;11909;52.516;13.564;2023-07-13T05:04:24;7.45;;;2.88;;
23472;SDS011;11909;52.516;13.564;2023-07-13T05:06:52;5.32;;;2.72;;
23472;SDS011;11909;52.516;13.564;2023-07-13T05:09:20;4.95;;;2.53;;
23472;SDS011;11909;52.516;13.564;2023-07-13T05:11:48;5.10;;;2.55;;
23472;SDS011;11909;52.516;13.564;2023-07-13T05:14:16;7.60;;;2.85;;
23472;SDS011;11909;52.516;13.564;2023-07-13T05:16:44;3.45;;;2.17;;
23472;SDS011;11909;52.516;13.564;2023-07-13T05:19:12;6.07;;;2.60;;
23472;SDS011;11909;52.516;13.564;2023-07-13T05:21:41;5.20;;;2.50;;
23472;SDS011;11909;52.516;13.564;2023-07-13T05:24:09;7.05;;;2.75;;
23472;SDS011;11909;52.516;13.564;2023-07-13T05:26:50;6.88;;;2.72;;
23472;SDS011;11909;52.516;13.564;2023-07-13T05:29:18;6.88;;;2.85;;
23472;SDS011;11909;52.516;13.564;2023-07-13T05:31:46;9.02;;;2.72;;
23472;SDS011;11909;52.516;13.564;2023-07-13T05:34:14;6.53;;;2.53;;
23472;SDS011;11909;52.516;13.564;2023-07-13T05:36:44;5.57;;;3.03;;
23472;SDS011;11909;52.516;13.564;2023-07-13T05:39:12;16.10;;;2.85;;
23472;SDS011;11909;52.516;13.564;2023-07-13T05:41:40;10.02;;;2.72;;
23472;SDS011;11909;52.516;13.564;2023-07-13T05:44:08;7.88;;;2.60;;
23472;SDS011;11909;52.516;13.564;2023-07-13T05:46:36;4.85;;;2.20;;
23472;SDS011;11909;52.516;13.564;2023-07-13T05:49:04;6.15;;;2.30;;
23472;SDS011;11909;52.516;13.564;2023-07-13T05:51:31;4.70;;;2.25;;
23472;SDS011;11909;52.516;13.564;2023-07-13T05:54:01;6.13;;;2.58;;
23472;SDS011;11909;52.516;13.564;2023-07-13T05:56:29;5.68;;;2.38;;
23472;SDS011;11909;52.516;13.564;2023-07-13T05:58:57;5.88;;;2.30;;
23472;SDS011;11909;52.516;13.564;2023-07-13T06:01:25;8.90;;;2.65;;
23472;SDS011;11909;52.516;13.564;2023-07-13T06:03:53;6.38;;;2.55;;
23472;SDS011;11909;52.516;13.564;2023-07-13T06:06:21;13.70;;;2.58;;
23472;SDS011;11909;52.516;13.564;2023-07-13T06:08:49;18.00;;;2.83;;
23472;SDS011;11909;52.516;13.564;2023-07-13T06:11:19;24.75;;;3.00;;
23472;SDS011;11909;52.516;13.564;2023-07-13T06:13:48;6.10;;;2.42;;
23472;SDS011;11909;52.516;13.564;2023-07-13T06:16:17;4.22;;;2.00;;
23472;SDS011;11909;52.516;13.564;2023-07-13T06:18:45;7.30;;;1.90;;
23472;SDS011;11909;52.516;13.564;2023-07-13T06:21:14;13.60;;;2.13;;
23472;SDS011;11909;52.516;13.564;2023-07-13T06:23:43;13.25;;;2.30;;
23472;SDS011;11909;52.516;13.564;2023-07-13T06:26:11;7.15;;;1.65;;
23472;SDS011;11909;52.516;13.564;2023-07-13T06:28:40;4.88;;;1.95;;
23472;SDS011;11909;52.516;13.564;2023-07-13T06:31:10;12.10;;;2.55;;
23472;SDS011;11909;52.516;13.564;2023-07-13T06:33:40;6.72;;;2.22;;
23472;SDS011;11909;52.516;13.564;2023-07-13T06:36:09;12.65;;;1.90;;
23472;SDS011;11909;52.516;13.564;2023-07-13T06:38:37;4.85;;;2.13;;
23472;SDS011;11909;52.516;13.564;2023-07-13T06:41:07;4.97;;;2.00;;
23472;SDS011;11909;52.516;13.564;2023-07-13T06:43:36;3.88;;;2.10;;
23472;SDS011;11909;52.516;13.564;2023-07-13T06:46:06;3.78;;;1.63;;
23472;SDS011;11909;52.516;13.564;2023-07-13T06:48:34;5.53;;;2.03;;
23472;SDS011;11909;52.516;13.564;2023-07-13T06:51:03;6.15;;;1.85;;
23472;SDS011;11909;52.516;13.564;2023-07-13T06:53:31;6.70;;;2.67;;
23472;SDS011;11909;52.516;13.564;2023-07-13T06:55:59;8.70;;;2.17;;
23472;SDS011;11909;52.516;13.564;2023-07-13T06:58:27;5.07;;;1.85;;
23472;SDS011;11909;52.516;13.564;2023-07-13T07:00:55;5.50;;;1.50;;
23472;SDS011;11909;52.516;13.564;2023-07-13T07:03:25;4.18;;;1.58;;
23472;SDS011;11909;52.516;13.564;2023-07-13T07:05:53;3.63;;;1.92;;
23472;SDS011;11909;52.516;13.564;2023-07-13T07:08:21;9.85;;;2.38;;
23472;SDS011;11909;52.516;13.564;2023-07-13T07:10:50;6.10;;;1.77;;
23472;SDS011;11909;52.516;13.564;2023-07-13T07:13:20;3.33;;;1.80;;
23472;SDS011;11909;52.516;13.564;2023-07-13T07:15:49;4.85;;;1.52;;
23472;SDS011;11909;52.516;13.564;2023-07-13T07:18:19;4.15;;;1.75;;
23472;SDS011;11909;52.516;13.564;2023-07-13T07:20:49;3.88;;;1.73;;
23472;SDS011;11909;52.516;13.564;2023-07-13T07:25:46;4.25;;;1.67;;
23472;SDS011;11909;52.516;13.564;2023-07-13T07:28:15;4.63;;;1.45;;
23472;SDS011;11909;52.516;13.564;2023-07-13T07:30:47;3.05;;;1.42;;
23472;SDS011;11909;52.516;13.564;2023-07-13T07:33:19;4.25;;;1.50;;
23472;SDS011;11909;52.516;13.564;2023-07-13T07:35:47;9.07;;;1.95;;
23472;SDS011;11909;52.516;13.564;2023-07-13T07:38:20;5.93;;;1.27;;
23472;SDS011;11909;52.516;13.564;2023-07-13T07:40:51;3.58;;;1.65;;
23472;SDS011;11909;52.516;13.564;2023-07-13T07:43:22;2.17;;;1.35;;
23472;SDS011;11909;52.516;13.564;2023-07-13T07:45:51;4.90;;;1.60;;
23472;SDS011;11909;52.516;13.564;2023-07-13T07:48:19;5.53;;;1.95;;
23472;SDS011;11909;52.516;13.564;2023-07-13T07:50:47;2.55;;;1.63;;
23472;SDS011;11909;52.516;13.564;2023-07-13T07:53:15;5.20;;;1.48;;
23472;SDS011;11909;52.516;13.564;2023-07-13T07:55:45;4.75;;;1.60;;
23472;SDS011;11909;52.516;13.564;2023-07-13T07:58:17;2.63;;;1.40;;
23472;SDS011;11909;52.516;13.564;2023-07-13T08:00:48;4.70;;;1.30;;
23472;SDS011;11909;52.516;13.564;2023-07-13T08:03:19;5.18;;;1.25;;
23472;SDS011;11909;52.516;13.564;2023-07-13T08:05:52;3.92;;;1.30;;
23472;SDS011;11909;52.516;13.564;2023-07-13T08:08:23;2.67;;;1.52;;
23472;SDS011;11909;52.516;13.564;2023-07-13T08:10:53;4.18;;;1.45;;
23472;SDS011;11909;52.516;13.564;2023-07-13T08:13:26;2.92;;;1.50;;
23472;SDS011;11909;52.516;13.564;2023-07-13T08:15:54;2.80;;;1.20;;
23472;SDS011;11909;52.516;13.564;2023-07-13T08:18:22;6.70;;;1.50;;
23472;SDS011;11909;52.516;13.564;2023-07-13T08:20:50;3.35;;;1.35;;
23472;SDS011;11909;52.516;13.564;2023-07-13T08:23:18;5.68;;;1.83;;
23472;SDS011;11909;52.516;13.564;2023-07-13T08:25:50;3.67;;;1.17;;
23472;SDS011;11909;52.516;13.564;2023-07-13T08:28:20;8.38;;;1.50;;
23472;SDS011;11909;52.516;13.564;2023-07-13T08:30:49;6.32;;;1.60;;
23472;SDS011;11909;52.516;13.564;2023-07-13T08:33:17;3.10;;;1.40;;
23472;SDS011;11909;52.516;13.564;2023-07-13T08:35:46;3.40;;;1.38;;
23472;SDS011;11909;52.516;13.564;2023-07-13T08:38:14;8.45;;;1.40;;
23472;SDS011;11909;52.516;13.564;2023-07-13T08:40:43;7.03;;;1.88;;
23472;SDS011;11909;52.516;13.564;2023-07-13T08:43:13;2.72;;;1.48;;
23472;SDS011;11909;52.516;13.564;2023-07-13T08:45:46;3.00;;;1.27;;
23472;SDS011;11909;52.516;13.564;2023-07-13T08:48:19;6.25;;;1.67;;
23472;SDS011;11909;52.516;13.564;2023-07-13T08:50:53;2.22;;;1.20;;
23472;SDS011;11909;52.516;13.564;2023-07-13T08:56:01;14.52;;;1.85;;
23472;SDS011;11909;52.516;13.564;2023-07-13T08:58:29;3.50;;;1.20;;
23472;SDS011;11909;52.516;13.564;2023-07-13T09:01:01;3.13;;;1.20;;
23472;SDS011;11909;52.516;13.564;2023-07-13T09:03:42;11.45;;;1.58;;
23472;SDS011;11909;52.516;13.564;2023-07-13T09:06:17;3.45;;;1.25;;
23472;SDS011;11909;52.516;13.564;2023-07-13T09:08:54;6.00;;;1.40;;
23472;SDS011;11909;52.516;13.564;2023-07-13T09:11:37;8.88;;;1.60;;
23472;SDS011;11909;52.516;13.564;2023-07-13T09:14:19;2.85;;;1.20;;
23472;SDS011;11909;52.516;13.564;2023-07-13T09:17:05;7.35;;;1.50;;
23472;SDS011;11909;52.516;13.564;2023-07-13T09:19:40;9.82;;;1.73;;
23472;SDS011;11909;52.516;13.564;2023-07-13T09:22:11;5.00;;;1.92;;
23472;SDS011;11909;52.516;13.564;2023-07-13T09:24:47;3.22;;;1.30;;
23472;SDS011;11909;52.516;13.564;2023-07-13T09:27:22;16.58;;;1.92;;
23472;SDS011;11909;52.516;13.564;2023-07-13T09:29:58;17.20;;;2.00;;
23472;SDS011;11909;52.516;13.564;2023-07-13T09:32:33;3.65;;;1.30;;
23472;SDS011;11909;52.516;13.564;2023-07-13T09:35:07;4.50;;;1.38;;
23472;SDS011;11909;52.516;13.564;2023-07-13T09:37:38;2.55;;;1.35;;
23472;SDS011;11909;52.516;13.564;2023-07-13T09:40:09;4.90;;;1.42;;
23472;SDS011;11909;52.516;13.564;2023-07-13T09:42:43;8.23;;;1.10;;
23472;SDS011;11909;52.516;13.564;2023-07-13T09:45:12;2.30;;;1.00;;
23472;SDS011;11909;52.516;13.564;2023-07-13T09:48:00;2.97;;;1.05;;
23472;SDS011;11909;52.516;13.564;2023-07-13T09:50:32;4.68;;;1.10;;
23472;SDS011;11909;52.516;13.564;2023-07-13T09:53:01;4.70;;;1.40;;
23472;SDS011;11909;52.516;13.564;2023-07-13T09:55:31;5.72;;;2.05;;
23472;SDS011;11909;52.516;13.564;2023-07-13T09:58:06;1.70;;;1.20;;
23472;SDS011;11909;52.516;13.564;2023-07-13T10:00:39;2.13;;;1.27;;
23472;SDS011;11909;52.516;13.564;2023-07-13T10:03:17;5.47;;;1.77;;
23472;SDS011;11909;52.516;13.564;2023-07-13T10:05:49;3.15;;;1.45;;
23472;SDS011;11909;52.516;13.564;2023-07-13T10:08:19;5.70;;;1.92;;
23472;SDS011;11909;52.516;13.564;2023-07-13T10:10:52;3.60;;;1.70;;
23472;SDS011;11909;52.516;13.564;2023-07-13T10:13:25;5.18;;;1.90;;
23472;SDS011;11909;52.516;13.564;2023-07-13T10:15:56;4.25;;;2.00;;
23472;SDS011;11909;52.516;13.564;2023-07-13T10:20:58;5.68;;;2.25;;
23472;SDS011;11909;52.516;13.564;2023-07-13T10:24:02;5.97;;;2.20;;
23472;SDS011;11909;52.516;13.564;2023-07-13T10:26:38;14.50;;;2.70;;
23472;SDS011;11909;52.516;13.564;2023-07-13T10:29:14;5.22;;;2.30;;
23472;SDS011;11909;52.516;13.564;2023-07-13T10:31:44;9.05;;;2.35;;
23472;SDS011;11909;52.516;13.564;2023-07-13T10:34:15;6.45;;;2.20;;
23472;SDS011;11909;52.516;13.564;2023-07-13T10:36:44;18.65;;;2.90;;
23472;SDS011;11909;52.516;13.564;2023-07-13T10:39:15;10.70;;;2.20;;
23472;SDS011;11909;52.516;13.564;2023-07-13T10:41:46;5.30;;;1.98;;
23472;SDS011;11909;52.516;13.564;2023-07-13T10:44:19;8.20;;;2.00;;
23472;SDS011;11909;52.516;13.564;2023-07-13T10:46:53;30.13;;;2.78;;
23472;SDS011;11909;52.516;13.564;2023-07-13T10:49:26;6.32;;;2.10;;
23472;SDS011;11909;52.516;13.564;2023-07-13T10:51:55;7.97;;;2.10;;
23472;SDS011;11909;52.516;13.564;2023-07-13T10:54:26;7.07;;;2.30;;
23472;SDS011;11909;52.516;13.564;2023-07-13T10:57:07;4.43;;;1.80;;
23472;SDS011;11909;52.516;13.564;2023-07-13T10:59:43;5.50;;;2.22;;
23472;SDS011;11909;52.516;13.564;2023-07-13T11:02:17;8.57;;;1.98;;
23472;SDS011;11909;52.516;13.564;2023-07-13T11:04:54;17.73;;;2.30;;
23472;SDS011;11909;52.516;13.564;2023-07-13T11:07:24;3.67;;;1.67;;
23472;SDS011;11909;52.516;13.564;2023-07-13T11:09:54;7.93;;;1.60;;
23472;SDS011;11909;52.516;13.564;2023-07-13T11:12:28;5.63;;;2.03;;
23472;SDS011;11909;52.516;13.564;2023-07-13T11:15:26;3.03;;;1.70;;
23472;SDS011;11909;52.516;13.564;2023-07-13T11:18:00;4.22;;;1.73;;
23472;SDS011;11909;52.516;13.564;2023-07-13T11:20:36;3.92;;;1.85;;
23472;SDS011;11909;52.516;13.564;2023-07-13T11:25:57;8.98;;;2.25;;
23472;SDS011;11909;52.516;13.564;2023-07-13T11:28:27;7.85;;;1.92;;
23472;SDS011;11909;52.516;13.564;2023-07-13T11:31:00;9.43;;;1.92;;
23472;SDS011;11909;52.516;13.564;2023-07-13T11:33:52;3.70;;;1.67;;
23472;SDS011;11909;52.516;13.564;2023-07-13T11:36:28;3.08;;;1.98;;
23472;SDS011;11909;52.516;13.564;2023-07-13T11:39:01;6.93;;;1.75;;
23472;SDS011;11909;52.516;13.564;2023-07-13T11:41:30;3.33;;;2.00;;
23472;SDS011;11909;52.516;13.564;2023-07-13T11:44:05;3.88;;;1.67;;
23472;SDS011;11909;52.516;13.564;2023-07-13T11:46:35;4.05;;;1.92;;
23472;SDS011;11909;52.516;13.564;2023-07-13T11:49:04;2.50;;;1.75;;
23472;SDS011;11909;52.516;13.564;2023-07-13T11:51:35;6.53;;;1.70;;
23472;SDS011;11909;52.516;13.564;2023-07-13T11:54:05;3.80;;;1.63;;
23472;SDS011;11909;52.516;13.564;2023-07-13T11:56:34;3.65;;;1.40;;
23472;SDS011;11909;52.516;13.564;2023-07-13T11:59:04;2.72;;;1.50;;
23472;SDS011;11909;52.516;13.564;2023-07-13T12:04:11;3.95;;;1.80;;
23472;SDS011;11909;52.516;13.564;2023-07-13T12:06:54;5.50;;;1.65;;
23472;SDS011;11909;52.516;13.564;2023-07-13T12:09:26;4.90;;;1.92;;
23472;SDS011;11909;52.516;13.564;2023-07-13T12:11:56;8.10;;;2.22;;
23472;SDS011;11909;52.516;13.564;2023-07-13T12:14:26;4.75;;;1.80;;
23472;SDS011;11909;52.516;13.564;2023-07-13T12:16:55;5.43;;;1.70;;
23472;SDS011;11909;52.516;13.564;2023-07-13T12:19:23;4.90;;;1.98;;
23472;SDS011;11909;52.516;13.564;2023-07-13T12:21:56;5.00;;;1.90;;
23472;SDS011;11909;52.516;13.564;2023-07-13T12:24:26;5.45;;;1.73;;
23472;SDS011;11909;52.516;13.564;2023-07-13T12:26:58;3.30;;;1.60;;
23472;SDS011;11909;52.516;13.564;2023-07-13T12:29:28;5.20;;;1.70;;
23472;SDS011;11909;52.516;13.564;2023-07-13T12:31:56;8.00;;;1.88;;
23472;SDS011;11909;52.516;13.564;2023-07-13T12:34:25;8.02;;;1.88;;
23472;SDS011;11909;52.516;13.564;2023-07-13T12:36:56;3.88;;;1.88;;
23472;SDS011;11909;52.516;13.564;2023-07-13T12:39:28;5.35;;;1.88;;
23472;SDS011;11909;52.516;13.564;2023-07-13T12:42:13;11.02;;;2.53;;
23472;SDS011;11909;52.516;13.564;2023-07-13T12:44:47;4.65;;;2.28;;
23472;SDS011;11909;52.516;13.564;2023-07-13T12:47:15;7.43;;;1.83;;
23472;SDS011;11909;52.516;13.564;2023-07-13T12:49:47;5.88;;;1.60;;
23472;SDS011;11909;52.516;13.564;2023-07-13T12:52:20;8.02;;;2.15;;
23472;SDS011;11909;52.516;13.564;2023-07-13T12:54:55;6.30;;;1.80;;
23472;SDS011;11909;52.516;13.564;2023-07-13T12:57:32;5.03;;;1.55;;
23472;SDS011;11909;52.516;13.564;2023-07-13T13:00:13;7.25;;;1.80;;
23472;SDS011;11909;52.516;13.564;2023-07-13T13:02:50;7.80;;;2.03;;
23472;SDS011;11909;52.516;13.564;2023-07-13T13:05:30;6.03;;;1.67;;
23472;SDS011;11909;52.516;13.564;2023-07-13T13:08:01;5.80;;;1.88;;
23472;SDS011;11909;52.516;13.564;2023-07-13T13:10:29;3.63;;;1.58;;
23472;SDS011;11909;52.516;13.564;2023-07-13T13:12:57;2.58;;;1.55;;
23472;SDS011;11909;52.516;13.564;2023-07-13T13:15:25;4.65;;;1.63;;
23472;SDS011;11909;52.516;13.564;2023-07-13T13:17:53;3.70;;;1.65;;
23472;SDS011;11909;52.516;13.564;2023-07-13T13:20:21;5.80;;;1.63;;
23472;SDS011;11909;52.516;13.564;2023-07-13T13:25:21;6.15;;;1.95;;
23472;SDS011;11909;52.516;13.564;2023-07-13T13:27:49;7.03;;;1.73;;
23472;SDS011;11909;52.516;13.564;2023-07-13T13:30:17;5.93;;;1.17;;
23472;SDS011;11909;52.516;13.564;2023-07-13T13:32:47;5.40;;;1.48;;
23472;SDS011;11909;52.516;13.564;2023-07-13T13:35:15;5.53;;;1.45;;
23472;SDS011;11909;52.516;13.564;2023-07-13T13:37:45;5.15;;;1.30;;
23472;SDS011;11909;52.516;13.564;2023-07-13T13:40:17;6.20;;;1.52;;
23472;SDS011;11909;52.516;13.564;2023-07-13T13:42:48;2.85;;;1.25;;
23472;SDS011;11909;52.516;13.564;2023-07-13T13:45:17;2.83;;;1.30;;
23472;SDS011;11909;52.516;13.564;2023-07-13T13:47:47;8.75;;;1.25;;
23472;SDS011;11909;52.516;13.564;2023-07-13T13:50:16;9.73;;;1.67;;
23472;SDS011;11909;52.516;13.564;2023-07-13T13:52:47;4.65;;;1.30;;
23472;SDS011;11909;52.516;13.564;2023-07-13T13:55:16;4.45;;;1.50;;
23472;SDS011;11909;52.516;13.564;2023-07-13T13:57:47;2.55;;;1.27;;
23472;SDS011;11909;52.516;13.564;2023-07-13T14:00:16;4.63;;;1.50;;
23472;SDS011;11909;52.516;13.564;2023-07-13T14:02:46;9.43;;;1.67;;
23472;SDS011;11909;52.516;13.564;2023-07-13T14:05:20;5.97;;;1.65;;
23472;SDS011;11909;52.516;13.564;2023-07-13T14:07:50;3.53;;;1.08;;
23472;SDS011;11909;52.516;13.564;2023-07-13T14:10:19;2.67;;;1.30;;
23472;SDS011;11909;52.516;13.564;2023-07-13T14:12:50;4.90;;;1.30;;
23472;SDS011;11909;52.516;13.564;2023-07-13T14:15:20;3.80;;;1.30;;
23472;SDS011;11909;52.516;13.564;2023-07-13T14:17:50;6.65;;;1.80;;
23472;SDS011;11909;52.516;13.564;2023-07-13T14:20:18;6.75;;;1.23;;
23472;SDS011;11909;52.516;13.564;2023-07-13T14:22:47;5.07;;;1.23;;
23472;SDS011;11909;52.516;13.564;2023-07-13T14:25:16;5.07;;;1.58;;
23472;SDS011;11909;52.516;13.564;2023-07-13T14:27:45;2.72;;;1.20;;
23472;SDS011;11909;52.516;13.564;2023-07-13T14:30:18;2.65;;;1.10;;
23472;SDS011;11909;52.516;13.564;2023-07-13T14:32:48;12.48;;;1.52;;
23472;SDS011;11909;52.516;13.564;2023-07-13T14:35:17;5.18;;;1.70;;
23472;SDS011;11909;52.516;13.564;2023-07-13T14:37:47;3.05;;;1.30;;
23472;SDS011;11909;52.516;13.564;2023-07-13T14:40:15;6.05;;;1.40;;
23472;SDS011;11909;52.516;13.564;2023-07-13T14:42:47;6.95;;;1.25;;
23472;SDS011;11909;52.516;13.564;2023-07-13T14:45:16;2.75;;;1.20;;
23472;SDS011;11909;52.516;13.564;2023-07-13T14:47:46;3.35;;;1.17;;
23472;SDS011;11909;52.516;13.564;2023-07-13T14:50:15;6.35;;;1.35;;
23472;SDS011;11909;52.516;13.564;2023-07-13T14:55:14;6.25;;;1.52;;
23472;SDS011;11909;52.516;13.564;2023-07-13T15:00:13;3.47;;;1.38;;
23472;SDS011;11909;52.516;13.564;2023-07-13T15:02:45;7.15;;;1.60;;
23472;SDS011;11909;52.516;13.564;2023-07-13T15:05:18;4.68;;;1.17;;
23472;SDS011;11909;52.516;13.564;2023-07-13T15:07:48;6.30;;;1.50;;
23472;SDS011;11909;52.516;13.564;2023-07-13T15:10:17;3.88;;;1.20;;
23472;SDS011;11909;52.516;13.564;2023-07-13T15:12:47;2.65;;;1.40;;
23472;SDS011;11909;52.516;13.564;2023-07-13T15:15:15;4.65;;;1.50;;